Data for 11/04/2017

Time Sea-Level Adjusted Pressure Absolute Pressure Temperature Relative Humidity Dew Point   
(mb) (inHg) (mb) (inHg) (C) (F) (%) (C) (F)
00:05 1011 29.85 841 24.83 -7 19.5 89 -8.5 16.7
00:10 1011 29.85 841 24.83 -7.1 19.2 89 -8.6 16.5
00:15 1011 29.85 841 24.83 -7.1 19.2 89 -8.6 16.5
00:20 1012 29.88 841 24.83 -7.1 19.1 89 -8.6 16.5
00:25 1012 29.88 841 24.83 -7.2 19.1 89 -8.7 16.4
00:30 1012 29.88 841 24.83 -7.2 19 89 -8.7 16.4
00:35 1012 29.88 841 24.83 -7.2 19 89 -8.7 16.3
00:40 1012 29.88 841 24.83 -7.5 18.6 89 -9 15.9
00:45 1012 29.88 841 24.83 -7.5 18.5 89 -9 15.8
00:50 1012 29.88 841 24.83 -7.5 18.5 90 -8.9 16
00:55 1012 29.88 841 24.83 -7.4 18.7 90 -8.8 16.2
01:00 1012 29.88 841 24.83 -7.2 19 90 -8.7 16.4
01:05 1012 29.88 841 24.83 -7.2 19 90 -8.7 16.4
01:10 1012 29.88 841 24.83 -7.3 19 89 -8.7 16.3
01:15 1012 29.88 841 24.83 -7.3 18.9 89 -8.7 16.3
01:20 1012 29.88 841 24.83 -7.3 18.9 90 -8.7 16.3
01:25 1012 29.88 841 24.83 -7.2 19.1 89 -8.6 16.4
01:30 1012 29.88 842 24.86 -7.2 19.1 89 -8.6 16.4
01:35 1012 29.88 841 24.83 -7.2 19.1 90 -8.6 16.5
01:40 1012 29.88 842 24.86 -7.1 19.2 90 -8.6 16.6
01:45 1012 29.88 842 24.86 -7.1 19.2 90 -8.5 16.6
01:50 1012 29.88 841 24.83 -7.1 19.2 89 -8.6 16.5
01:55 1012 29.88 842 24.86 -7.4 18.8 89 -8.8 16.1
02:00 1012 29.88 842 24.86 -7.4 18.7 89 -8.8 16.1
02:05 1012 29.88 842 24.86 -7.4 18.7 90 -8.8 16.1
02:10 1012 29.88 841 24.83 -7.4 18.7 90 -8.8 16.2
02:15 1013 29.91 842 24.86 -7.3 18.9 90 -8.7 16.3
02:20 1013 29.91 842 24.86 -7.3 18.9 90 -8.6 16.5
02:25 1013 29.91 842 24.86 -7.2 19.1 90 -8.5 16.7
02:30 1013 29.91 842 24.86 -7 19.3 90 -8.4 17
02:35 1013 29.91 842 24.86 -6.9 19.6 90 -8.2 17.2
02:40 1013 29.91 842 24.86 -6.8 19.7 90 -8.2 17.3
02:45 1013 29.91 842 24.86 -6.8 19.8 90 -8.1 17.3
02:50 1013 29.91 842 24.86 -6.8 19.8 90 -8.1 17.3
02:55 1013 29.91 842 24.86 -6.8 19.8 90 -8.1 17.4
03:00 1013 29.91 842 24.86 -6.8 19.8 90 -8.2 17.3
03:05 1013 29.91 842 24.86 -6.9 19.6 90 -8.3 17
03:10 1013 29.91 842 24.86 -7 19.5 90 -8.3 17
03:15 1013 29.91 842 24.86 -7 19.4 90 -8.4 16.9
03:20 1013 29.91 842 24.86 -7.1 19.3 90 -8.4 16.8
03:25 1013 29.91 842 24.86 -7.1 19.1 90 -8.6 16.6
03:30 1013 29.91 842 24.86 -7.2 19 90 -8.6 16.4
03:35 1013 29.91 842 24.86 -7.4 18.8 90 -8.7 16.3
03:40 1013 29.91 842 24.86 -7.3 18.8 90 -8.7 16.3
03:45 1013 29.91 842 24.86 -7.4 18.7 90 -8.8 16.2
03:50 1013 29.91 842 24.86 -7.4 18.8 90 -8.7 16.3
03:55 1013 29.91 842 24.86 -7.4 18.7 90 -8.7 16.3
04:00 1013 29.91 842 24.86 -7.3 18.8 90 -8.7 16.4
04:05 1013 29.91 842 24.86 -7.3 18.9 90 -8.6 16.5
04:10 1013 29.91 842 24.86 -7.3 18.9 90 -8.6 16.6
04:15 1013 29.91 842 24.86 -7.2 19.1 90 -8.6 16.6
04:20 1013 29.91 842 24.86 -7.3 19 90 -8.6 16.5
04:25 1013 29.91 842 24.86 -7.2 19 90 -8.6 16.6
04:30 1013 29.91 842 24.86 -7.1 19.1 90 -8.5 16.8
04:35 1013 29.91 842 24.86 -7.2 19.1 90 -8.5 16.7
04:40 1013 29.91 842 24.86 -7.2 19.1 90 -8.5 16.7
04:45 1013 29.91 842 24.86 -7.1 19.2 90 -8.5 16.8
04:50 1013 29.91 842 24.86 -7.1 19.2 90 -8.5 16.7
04:55 1013 29.91 842 24.86 -7.2 19.1 90 -8.5 16.7
05:00 1013 29.91 842 24.86 -7.2 19.1 90 -8.5 16.7
05:05 1013 29.91 842 24.86 -7.2 19.1 91 -8.5 16.8
05:10 1013 29.91 842 24.86 -7.1 19.2 91 -8.4 16.9
05:15 1013 29.91 842 24.86 -7 19.3 91 -8.3 17
05:20 1013 29.91 842 24.86 -7 19.4 90 -8.3 17
05:25 1013 29.91 842 24.86 -7 19.4 91 -8.3 17.1
05:30 1013 29.91 842 24.86 -7 19.4 90 -8.3 17
05:35 1013 29.91 842 24.86 -7 19.4 90 -8.3 17
05:40 1013 29.91 842 24.86 -7 19.4 90 -8.3 17
05:45 1013 29.91 842 24.86 -7 19.4 90 -8.4 16.9
05:50 1013 29.91 842 24.86 -7 19.4 90 -8.4 16.9
05:55 1013 29.91 842 24.86 -7 19.4 90 -8.3 17.1
06:00 1013 29.91 842 24.86 -6.9 19.5 90 -8.3 17.1
06:05 1013 29.91 842 24.86 -6.9 19.6 90 -8.2 17.2
06:10 1013 29.91 842 24.86 -6.8 19.7 90 -8.2 17.3
06:15 1013 29.91 842 24.86 -6.8 19.8 90 -8.1 17.4
06:20 1013 29.91 842 24.86 -6.8 19.8 90 -8.1 17.4
06:25 1013 29.91 842 24.86 -6.8 19.8 90 -8.2 17.3
06:30 1013 29.91 842 24.86 -6.9 19.6 90 -8.2 17.2
06:35 1013 29.91 842 24.86 -6.8 19.7 90 -8.1 17.3
06:40 1013 29.91 842 24.86 -6.8 19.7 90 -8.1 17.4
06:45 1013 29.91 842 24.86 -6.8 19.7 90 -8.2 17.2
06:50 1013 29.91 842 24.86 -6.9 19.5 90 -8.4 16.9
06:55 1013 29.91 842 24.86 -7 19.3 89 -8.5 16.7
07:00 1013 29.91 842 24.86 -7.2 19.1 89 -8.6 16.5
07:05 1013 29.91 842 24.86 -7.3 18.8 90 -8.8 16.2
07:10 1013 29.91 842 24.86 -7.3 18.8 90 -8.7 16.3
07:15 1013 29.91 842 24.86 -7.4 18.6 89 -8.9 16
07:20 1013 29.91 842 24.86 -7.6 18.3 90 -9 15.8
07:25 1013 29.91 842 24.86 -7.5 18.4 90 -8.9 15.9
07:30 1013 29.91 842 24.86 -7.6 18.4 90 -8.9 16
07:35 1013 29.91 842 24.86 -7.4 18.7 90 -8.7 16.3
07:40 1013 29.91 842 24.86 -7.4 18.7 90 -8.7 16.3
07:45 1013 29.91 842 24.86 -7.3 18.9 90 -8.6 16.5
07:50 1013 29.91 842 24.86 -7.1 19.1 90 -8.5 16.7
07:55 1013 29.91 842 24.86 -7.1 19.1 90 -8.5 16.7
08:00 1013 29.91 842 24.86 -7.1 19.1 90 -8.5 16.7
08:05 1013 29.91 842 24.86 -7 19.3 90 -8.4 16.8
08:10 1013 29.91 842 24.86 -7.1 19.3 89 -8.5 16.6
08:15 1013 29.91 842 24.86 -7.1 19.3 90 -8.5 16.7
08:20 1013 29.91 842 24.86 -6.9 19.5 90 -8.3 17
08:25 1013 29.91 842 24.86 -6.9 19.5 88 -8.5 16.6
08:30 1013 29.91 842 24.86 -7.1 19.2 90 -8.5 16.7
08:35 1013 29.91 842 24.86 -6.9 19.5 89 -8.4 16.8
08:40 1013 29.91 843 24.89 -6.9 19.7 89 -8.4 17
08:45 1013 29.91 843 24.89 -6.7 19.9 89 -8.3 17.1
08:50 1013 29.91 843 24.89 -6.7 19.9 89 -8.3 17.1
08:55 1013 29.91 843 24.89 -6.7 20 89 -8.3 17.1
09:00 1013 29.91 843 24.89 -6.7 20 88 -8.3 17.1
09:05 1013 29.91 843 24.89 -6.7 19.9 88 -8.4 16.8
09:10 1013 29.91 843 24.89 -6.8 19.7 89 -8.4 16.9
09:15 1013 29.91 843 24.89 -6.7 19.9 88 -8.3 17
09:20 1013 29.91 843 24.89 -6.6 20.2 88 -8.2 17.2
09:25 1014 29.94 843 24.89 -6.4 20.5 89 -8 17.7
09:30 1013 29.91 843 24.89 -6.3 20.7 88 -7.9 17.7
09:35 1013 29.91 843 24.89 -6.1 20.9 88 -7.8 17.9
09:40 1014 29.94 843 24.89 -5.9 21.3 87 -7.8 18
09:45 1014 29.94 843 24.89 -5.9 21.3 88 -7.7 18.2
09:50 1014 29.94 843 24.89 -5.6 21.9 87 -7.5 18.6
09:55 1014 29.94 843 24.89 -5.5 22.1 84 -7.7 18.1
10:00 1014 29.94 843 24.89 -5.9 21.4 86 -7.9 17.8
10:05 1014 29.94 843 24.89 -5.9 21.3 85 -8.1 17.4
10:10 1014 29.94 843 24.89 -6.1 21 86 -8.1 17.4
10:15 1014 29.94 843 24.89 -5.9 21.3 86 -8 17.6
10:20 1014 29.94 843 24.89 -5.6 21.9 87 -7.4 18.6
10:25 1014 29.94 843 24.89 -4.8 23.4 83 -7.2 19.1
10:30 1014 29.94 843 24.89 -4.8 23.5 80 -7.7 18.1
10:35 1014 29.94 843 24.89 -5.6 21.9 84 -8 17.6
10:40 1014 29.94 843 24.89 -5.6 21.8 85 -7.8 18
10:45 1014 29.94 843 24.89 -5.7 21.7 83 -8.1 17.4
10:50 1014 29.94 843 24.89 -5.5 22 83 -7.9 17.7
10:55 1013 29.91 843 24.89 -4.9 23.1 83 -7.4 18.7
11:00 1013 29.91 843 24.89 -4.4 24.1 82 -7 19.4
11:05 1014 29.94 843 24.89 -4.2 24.5 81 -6.9 19.6
11:10 1014 29.94 843 24.89 -4.1 24.6 81 -6.9 19.6
11:15 1014 29.94 843 24.89 -4.1 24.6 82 -6.7 19.9
11:20 1013 29.91 843 24.89 -3.6 25.5 78 -6.9 19.5
11:25 1013 29.91 843 24.89 -3.7 25.3 79 -6.9 19.7
11:30 1013 29.91 842 24.86 -4 24.8 81 -6.9 19.6
11:35 1013 29.91 842 24.86 -3.5 25.8 83 -6 21.2
11:40 1013 29.91 842 24.86 -2.2 28.1 78 -5.6 22
11:45 1013 29.91 842 24.86 -2 28.4 76 -5.8 21.6
11:50 1013 29.91 842 24.86 -2.1 28.2 76 -5.8 21.6
11:55 1013 29.91 842 24.86 -2.2 28 76 -5.8 21.5
12:00 1013 29.91 842 24.86 -2.2 28.1 75 -6 21.2
12:05 1013 29.91 842 24.86 -2.2 28 76 -5.9 21.4
12:10 1013 29.91 842 24.86 -2 28.4 74 -6 21.2
12:15 1013 29.91 842 24.86 -1.6 29.1 72 -6 21.3
12:20 1013 29.91 842 24.86 -1.1 30 71 -5.7 21.7
12:25 1013 29.91 842 24.86 -0.8 30.5 70 -5.7 21.7
12:30 1013 29.91 842 24.86 -1.1 30.1 69 -6 21.2
12:35 1013 29.91 842 24.86 -1.4 29.4 68 -6.6 20.1
12:40 1013 29.91 842 24.86 -1.3 29.7 67 -6.6 20
12:45 1013 29.91 842 24.86 -1 30.3 63 -7.1 19.3
12:50 1012 29.88 842 24.86 -0.8 30.6 60 -7.7 18.1
12:55 1012 29.88 842 24.86 -0.2 31.7 62 -6.5 20.2
13:00 1012 29.88 842 24.86 -0.1 31.8 60 -7.1 19.3
13:05 1012 29.88 841 24.83 -0.6 30.9 61 -7.3 18.9
13:10 1012 29.88 841 24.83 -0.6 31 62 -6.9 19.6
13:15 1012 29.88 841 24.83 -1.1 30.1 62 -7.5 18.4
13:20 1012 29.88 841 24.83 -0.3 31.4 60 -7.2 19
13:25 1012 29.88 841 24.83 -0.4 31.3 60 -7.2 19
13:30 1012 29.88 841 24.83 -0.5 31.1 61 -7 19.3
13:35 1012 29.88 841 24.83 -0.4 31.3 58 -7.7 18.1
13:40 1012 29.88 841 24.83 -0.9 30.4 60 -7.7 18.1
13:45 1012 29.88 841 24.83 -1.3 29.7 60 -8.1 17.4
13:50 1012 29.88 841 24.83 -1 30.2 60 -7.8 17.9
13:55 1012 29.88 841 24.83 -0.9 30.3 55 -9 15.9
14:00 1012 29.88 841 24.83 -1.2 29.8 56 -8.9 15.9
14:05 1012 29.88 841 24.83 -1.2 29.8 55 -9.2 15.4
14:10 1012 29.88 841 24.83 -1.1 29.9 57 -8.7 16.3
14:15 1012 29.88 841 24.83 -1.1 30.1 54 -9.2 15.4
14:20 1012 29.88 841 24.83 -1.2 29.8 53 -9.6 14.7
14:25 1012 29.88 841 24.83 -1.4 29.4 55 -9.3 15.3
14:30 1012 29.88 841 24.83 -1.4 29.5 55 -9.4 15.1
14:35 1012 29.88 841 24.83 -0.9 30.4 55 -8.7 16.3
14:40 1012 29.88 841 24.83 -0.8 30.6 60 -7.6 18.4
14:45 1012 29.88 841 24.83 -0.4 31.3 63 -6.6 20.1
14:50 1012 29.88 841 24.83 -0.2 31.6 62 -6.7 20
14:55 1012 29.88 841 24.83 -0.5 31 60 -7.3 18.9
15:00 1012 29.88 841 24.83 -0.8 30.5 69 -5.9 21.4
15:05 1012 29.88 841 24.83 -1.2 29.8 72 -5.6 22
15:10 1012 29.88 841 24.83 -1.2 29.9 73 -5.4 22.3
15:15 1012 29.88 842 24.86 -1.2 29.9 73 -5.4 22.3
15:20 1012 29.88 842 24.86 -1.1 30 73 -5.4 22.3
15:25 1012 29.88 842 24.86 -1 30.3 73 -5.3 22.5
15:30 1012 29.88 842 24.86 -1.1 30 73 -5.3 22.4
15:35 1012 29.88 842 24.86 -1.1 29.9 73 -5.3 22.4
15:40 1012 29.88 842 24.86 -1.4 29.5 72 -5.8 21.6
15:45 1012 29.88 842 24.86 -1.6 29.2 74 -5.6 22
15:50 1012 29.88 842 24.86 -1.3 29.7 73 -5.6 22
15:55 1012 29.88 842 24.86 -1.7 29 76 -5.3 22.5
16:00 1012 29.88 842 24.86 -1.9 28.6 76 -5.6 21.9
16:05 1012 29.88 842 24.86 -2.4 27.7 80 -5.4 22.2
16:10 1012 29.88 842 24.86 -2.4 27.7 79 -5.6 21.9
16:15 1012 29.88 842 24.86 -2.3 27.8 78 -5.7 21.8
16:20 1012 29.88 842 24.86 -2.4 27.6 79 -5.7 21.8
16:25 1012 29.88 842 24.86 -2.5 27.4 79 -5.6 21.8
16:30 1012 29.88 842 24.86 -3.2 26.3 82 -5.8 21.5
16:35 1012 29.88 842 24.86 -3.2 26.3 81 -6 21.2
16:40 1012 29.88 842 24.86 -3.4 25.8 82 -6.1 21.1
16:45 1012 29.88 842 24.86 -3.5 25.7 82 -6.1 21
16:50 1012 29.88 842 24.86 -3.4 25.9 81 -6.1 21
16:55 1012 29.88 842 24.86 -3.3 26 81 -6.1 21
17:00 1012 29.88 842 24.86 -3.7 25.4 83 -6.1 21
17:05 1012 29.88 842 24.86 -3.7 25.4 83 -6.1 20.9
17:10 1013 29.91 842 24.86 -3.7 25.4 83 -6.1 21
17:15 1013 29.91 842 24.86 -3.7 25.4 83 -6.1 21
17:20 1013 29.91 842 24.86 -3.7 25.4 83 -6.1 21
17:25 1013 29.91 842 24.86 -3.6 25.5 83 -6.1 20.9
17:30 1013 29.91 842 24.86 -3.9 25 83 -6.3 20.6
17:35 1013 29.91 842 24.86 -4.2 24.4 86 -6.3 20.7
17:40 1013 29.91 842 24.86 -4 24.8 85 -6.2 20.9
17:45 1013 29.91 842 24.86 -3.8 25.1 84 -6.1 21.1
17:50 1013 29.91 842 24.86 -3.7 25.3 84 -6 21.2
17:55 1013 29.91 842 24.86 -3.8 25.2 85 -6 21.1
18:00 1012 29.88 842 24.86 -4 24.8 85 -6.1 21.1
18:05 1012 29.88 842 24.86 -4.1 24.6 87 -6 21.1
18:10 1012 29.88 842 24.86 -4.1 24.6 87 -6 21.2
18:15 1013 29.91 842 24.86 -4.1 24.6 87 -6 21.3
18:20 1013 29.91 842 24.86 -4.1 24.7 87 -5.9 21.3
18:25 1013 29.91 842 24.86 -4.1 24.7 87 -5.9 21.4
18:30 1013 29.91 842 24.86 -4.1 24.7 87 -5.9 21.3
18:35 1013 29.91 842 24.86 -4.1 24.6 84 -6.5 20.3
18:40 1013 29.91 842 24.86 -4.1 24.5 84 -6.5 20.2
18:45 1013 29.91 842 24.86 -4.2 24.5 83 -6.6 20.1
18:50 1013 29.91 842 24.86 -4.2 24.4 79 -7.3 18.9
18:55 1013 29.91 842 24.86 -4.3 24.3 79 -7.4 18.6
19:00 1012 29.88 842 24.86 -4.3 24.2 77 -7.8 18
19:05 1012 29.88 842 24.86 -4.3 24.2 81 -7.2 19.1
19:10 1012 29.88 842 24.86 -4.4 24.1 82 -7 19.4
19:15 1012 29.88 842 24.86 -4.5 23.9 81 -7.3 18.8
19:20 1012 29.88 842 24.86 -4.6 23.6 76 -8.2 17.3
19:25 1012 29.88 842 24.86 -4.7 23.5 77 -8.2 17.2
19:30 1012 29.88 842 24.86 -4.8 23.4 77 -8.2 17.2
19:35 1012 29.88 842 24.86 -4.8 23.3 78 -8.2 17.3
19:40 1012 29.88 842 24.86 -4.9 23.1 78 -8.2 17.3
19:45 1012 29.88 842 24.86 -5 23 77 -8.4 16.9
19:50 1012 29.88 842 24.86 -5 23 77 -8.4 17
19:55 1012 29.88 842 24.86 -5 22.9 78 -8.4 16.9
20:00 1012 29.88 841 24.83 -5 22.9 78 -8.2 17.2
20:05 1012 29.88 841 24.83 -5.1 22.8 78 -8.4 17
20:10 1012 29.88 841 24.83 -5.1 22.9 77 -8.5 16.8
20:15 1012 29.88 841 24.83 -5.1 22.8 78 -8.3 17.1
20:20 1012 29.88 841 24.83 -5.2 22.7 78 -8.4 16.9
20:25 1012 29.88 841 24.83 -5.1 22.8 77 -8.5 16.7
20:30 1012 29.88 841 24.83 -5.1 22.9 77 -8.6 16.6
20:35 1012 29.88 841 24.83 -5.1 22.8 77 -8.6 16.5
20:40 1012 29.88 841 24.83 -5.2 22.7 78 -8.5 16.7
20:45 1012 29.88 841 24.83 -5.2 22.6 77 -8.6 16.6
20:50 1012 29.88 842 24.86 -5.2 22.7 76 -8.7 16.3
20:55 1012 29.88 842 24.86 -5.2 22.7 76 -8.7 16.3
21:00 1012 29.88 842 24.86 -5.2 22.7 75 -9 15.9
21:05 1012 29.88 842 24.86 -5.2 22.6 76 -8.7 16.3
21:10 1012 29.88 842 24.86 -5.3 22.5 76 -8.9 16
21:15 1012 29.88 842 24.86 -5.3 22.5 76 -8.9 15.9
21:20 1012 29.88 842 24.86 -5.3 22.5 76 -8.9 15.9
21:25 1012 29.88 842 24.86 -5.3 22.4 76 -8.9 15.9
21:30 1012 29.88 842 24.86 -5.4 22.3 76 -9 15.7
21:35 1012 29.88 842 24.86 -5.2 22.6 75 -9 15.8
21:40 1012 29.88 842 24.86 -5.2 22.7 75 -9 15.8
21:45 1012 29.88 842 24.86 -5.2 22.7 75 -9 15.8
21:50 1012 29.88 842 24.86 -5.2 22.6 76 -8.9 16
21:55 1012 29.88 842 24.86 -5.4 22.3 77 -8.9 16.1
22:00 1012 29.88 842 24.86 -5.4 22.3 76 -8.9 15.9
22:05 1012 29.88 842 24.86 -5.4 22.3 76 -8.9 15.9
22:10 1012 29.88 842 24.86 -5.3 22.5 74 -9.1 15.6
22:15 1012 29.88 842 24.86 -5.2 22.7 74 -9.1 15.6
22:20 1012 29.88 842 24.86 -5.1 22.8 75 -8.9 16
22:25 1012 29.88 842 24.86 -5.1 22.7 75 -8.8 16.1
22:30 1012 29.88 842 24.86 -5.1 22.8 74 -9 15.7
22:35 1012 29.88 842 24.86 -5.2 22.7 74 -9 15.8
22:40 1012 29.88 842 24.86 -5 22.9 73 -9.2 15.4
22:45 1012 29.88 842 24.86 -5.1 22.9 73 -9.2 15.5
22:50 1012 29.88 842 24.86 -5 22.9 73 -9.1 15.7
22:55 1012 29.88 842 24.86 -5.1 22.8 73 -9.3 15.3
23:00 1012 29.88 842 24.86 -5.1 22.9 73 -9.2 15.4
23:05 1012 29.88 842 24.86 -5 22.9 72 -9.3 15.2
23:10 1012 29.88 842 24.86 -5 23.1 73 -9.1 15.6
23:15 1012 29.88 842 24.86 -5 23 73 -9.1 15.7
23:20 1012 29.88 842 24.86 -4.9 23.1 73 -9 15.8
23:25 1012 29.88 842 24.86 -5 23.1 73 -9.2 15.5
23:30 1012 29.88 842 24.86 -5 23.1 73 -9.1 15.7
23:35 1012 29.88 842 24.86 -5 23.1 72 -9.3 15.2
23:40 1012 29.88 842 24.86 -4.9 23.2 71 -9.4 15.1
23:45 1012 29.88 842 24.86 -4.9 23.2 71 -9.3 15.2
23:50 1012 29.88 842 24.86 -4.9 23.1 71 -9.4 15.1
23:55 1012 29.88 842 24.86 -4.9 23.1 72 -9.2 15.5
24:00 1012 29.88 842 24.86 -4.9 23.2 71 -9.3 15.3